Airfield :
LOGIN :

Register | Disclaimer

   EN    FR    IT 

 










Legend :    VFR   Marginal VFR   IFR   Intensive IFR   Very Intensive IFR
Visi :
Ceiling :
>= 8 km
>= 3000ft
5 to 8 km
1000 to 3000 ft
1500m to 5 km
500 to 1000 ft
800 to 1500m
200 to 500 ft
< 800m
< 200 ft
Symbols :   Thunderstorms  Fog  Heavy snow  Heavy precipitations  Wind > 20 kt
SIGMETs :     Misc.  Thunderstorms  Icing  Turbulence  Mountain Waves  Volcanic Ashes






- Airport Elevation : 412 ft
- IATA code : ORE


LFOJ - Orleans

CURRENT METAR :
  • 300430Z AUTO 07003KT 6000 OVC009 M01/M02 Q1026

EXPIRED METARs :
  • 300400Z AUTO 08003KT 6000 OVC010 M01/M02 Q1026
  • 300330Z AUTO 04004KT 6000 BKN011 M02/M03 Q1026
  • 300300Z AUTO 04003KT 6000 NSC M02/M03 Q1026
  • 300230Z AUTO 05005KT 6000 NSC M01/M03 Q1026
  • 300200Z AUTO 04003KT 6000 NSC M01/M02 Q1026

TAF TAF LFOJ
Valid from the 29 at 21:00 until the 30 at 21:00 UTC


292000Z 2921/3021 05010KT 9000 OVC012 TX06/3015Z TNM03/3007Z
BECMG 2921/2922 BKN004 OVC009
BECMG 2922/2924 OVC004
PROB40
TEMPO 2923/3003 3000 BR BKN002 OVC004
BECMG 3009/3010 BKN004 BKN009
BECMG 3010/3012 VRB02KT CAVOK
BECMG 3015/3017 22006KT OVC010



MET'MAP, your aeronautical weather chart ! - Copyright ORBIFLY December 2007 - Disclaimer

ORBIFLY MET'MAP TEAM :

Programming & Development : Alexandra Zaïnal
Concept & original design : Baudouin d'Aumeries
Assistance for programming : Marc-Olivier Méhu
Technical & hardware support : Manuel Goepfert

Contact : metmap@orbifly.com




SOURCES & CREDITS :

   NOAA